createdAt,value
2023-01-06T00:00:33.747Z,7.53
2023-01-06T00:03:01.068Z,10.33
2023-01-06T00:05:29.103Z,8.13
2023-01-06T00:07:56.553Z,7.87
2023-01-06T00:10:24.184Z,7.53
2023-01-06T00:12:51.522Z,7.03
2023-01-06T00:15:19.485Z,7.93
2023-01-06T00:17:48.281Z,10.00
2023-01-06T00:20:15.610Z,11.30
2023-01-06T00:22:43.797Z,14.97
2023-01-06T00:25:11.773Z,9.67
2023-01-06T00:27:39.546Z,9.00
2023-01-06T00:30:08.121Z,9.27
2023-01-06T00:32:35.563Z,6.80
2023-01-06T00:35:04.305Z,9.83
2023-01-06T00:37:31.665Z,5.83
2023-01-06T00:39:58.980Z,7.27
2023-01-06T00:42:26.384Z,9.00
2023-01-06T00:44:53.695Z,11.07
2023-01-06T00:47:21.227Z,10.93
2023-01-06T00:49:48.892Z,8.10
2023-01-06T00:52:17.667Z,11.40
2023-01-06T00:54:45.072Z,8.83
2023-01-06T00:57:12.409Z,8.87
2023-01-06T00:59:39.739Z,9.87
2023-01-06T01:02:07.244Z,10.47
2023-01-06T01:04:36.169Z,7.50
2023-01-06T01:07:03.507Z,9.63
2023-01-06T01:09:32.562Z,9.70
2023-01-06T01:12:12.954Z,8.60
2023-01-06T01:14:41.275Z,7.33
2023-01-06T01:17:09.031Z,8.87
2023-01-06T01:19:36.383Z,9.83
2023-01-06T01:22:04.136Z,6.20
2023-01-06T01:24:32.836Z,6.50
2023-01-06T01:27:00.182Z,7.13
2023-01-06T01:29:27.763Z,12.10
2023-01-06T01:31:55.328Z,8.97
2023-01-06T01:34:23.142Z,8.93
2023-01-06T01:36:51.117Z,10.67
2023-01-06T01:39:19.877Z,9.83
2023-01-06T01:41:48.583Z,10.70
2023-01-06T01:44:34.769Z,13.13
2023-01-06T01:47:02.110Z,9.97
2023-01-06T01:49:32.169Z,10.93
2023-01-06T01:51:59.573Z,11.60
2023-01-06T01:54:28.361Z,12.93
2023-01-06T01:56:58.907Z,7.40
2023-01-06T01:59:28.105Z,11.40
2023-01-06T02:01:55.655Z,9.23
2023-01-06T02:04:24.235Z,8.40
2023-01-06T02:06:51.675Z,5.70
2023-01-06T02:09:22.684Z,6.60
2023-01-06T02:11:51.379Z,7.47
2023-01-06T02:14:21.188Z,6.37
2023-01-06T02:16:54.492Z,3.90
2023-01-06T02:19:36.941Z,5.50
2023-01-06T02:22:18.898Z,9.37
2023-01-06T02:25:03.918Z,7.73
2023-01-06T02:27:37.909Z,8.63
2023-01-06T02:30:17.597Z,5.50
2023-01-06T02:32:49.626Z,5.50
2023-01-06T02:35:33.472Z,8.97
2023-01-06T02:38:05.651Z,5.90
2023-01-06T02:40:42.069Z,5.23
2023-01-06T02:43:14.073Z,8.90
2023-01-06T02:45:48.863Z,4.83
2023-01-06T02:48:22.514Z,7.67
2023-01-06T02:50:55.677Z,5.57
2023-01-06T02:53:25.788Z,8.13
2023-01-06T02:55:54.857Z,4.00
2023-01-06T02:58:28.051Z,5.77
2023-01-06T03:00:59.128Z,6.27
2023-01-06T03:03:29.582Z,3.87
2023-01-06T03:05:58.983Z,5.43
2023-01-06T03:08:27.751Z,5.40
2023-01-06T03:10:55.832Z,7.90
2023-01-06T03:13:26.164Z,6.10
2023-01-06T03:15:53.572Z,5.47
2023-01-06T03:18:21.173Z,6.37
2023-01-06T03:20:50.677Z,6.60
2023-01-06T03:23:18.048Z,8.63
2023-01-06T03:25:45.379Z,5.97
2023-01-06T03:28:12.968Z,6.40
2023-01-06T03:30:44.460Z,5.67
2023-01-06T03:33:14.655Z,6.20
2023-01-06T03:36:05.868Z,5.57
2023-01-06T03:38:42.142Z,5.30
2023-01-06T03:41:12.522Z,8.00
2023-01-06T03:43:42.150Z,6.97
2023-01-06T03:46:15.851Z,6.83
2023-01-06T03:48:51.341Z,5.63
2023-01-06T03:51:24.261Z,9.73
2023-01-06T03:53:57.100Z,6.23
2023-01-06T03:56:26.498Z,7.73
2023-01-06T03:58:56.831Z,7.20
2023-01-06T04:01:24.998Z,6.77
2023-01-06T04:03:53.023Z,8.43
2023-01-06T04:06:20.748Z,9.37
2023-01-06T04:08:48.136Z,7.37
2023-01-06T04:11:30.899Z,6.03
2023-01-06T04:13:58.232Z,7.73
2023-01-06T04:16:25.579Z,7.10
2023-01-06T04:18:52.921Z,5.27
2023-01-06T04:21:20.215Z,8.03
2023-01-06T04:23:47.536Z,9.13
2023-01-06T04:26:14.871Z,8.67
2023-01-06T04:28:43.547Z,8.77
2023-01-06T04:31:11.888Z,6.87
2023-01-06T04:33:39.212Z,7.97
2023-01-06T04:36:06.999Z,6.43
2023-01-06T04:38:34.429Z,7.00
2023-01-06T04:41:01.798Z,7.83
2023-01-06T04:43:29.146Z,7.67
2023-01-06T04:45:59.982Z,7.33
2023-01-06T04:48:27.379Z,6.03
2023-01-06T04:51:00.856Z,7.67
2023-01-06T04:53:28.189Z,6.73
2023-01-06T04:55:55.498Z,4.30
2023-01-06T04:58:22.839Z,5.30
2023-01-06T05:00:50.199Z,4.67
2023-01-06T05:03:18.972Z,5.60
2023-01-06T05:05:46.262Z,5.57
2023-01-06T05:08:13.583Z,7.17
2023-01-06T05:10:40.905Z,4.87
2023-01-06T05:13:08.219Z,6.53
2023-01-06T05:15:35.550Z,4.67
2023-01-06T05:18:02.888Z,6.80
2023-01-06T05:20:31.520Z,6.77
2023-01-06T05:22:58.867Z,6.60
2023-01-06T05:25:26.202Z,5.57
2023-01-06T05:27:53.527Z,5.97
2023-01-06T05:30:21.107Z,5.83
2023-01-06T05:32:48.463Z,5.37
2023-01-06T05:35:15.893Z,7.50
2023-01-06T05:37:44.573Z,5.47
2023-01-06T05:40:12.051Z,5.60
2023-01-06T05:42:39.379Z,9.23
2023-01-06T05:45:07.262Z,6.23
2023-01-06T05:47:34.592Z,7.83
2023-01-06T05:50:01.895Z,7.07
2023-01-06T05:52:29.244Z,7.77
2023-01-06T05:54:57.919Z,7.20
2023-01-06T05:57:25.288Z,7.90
2023-01-06T05:59:52.630Z,5.83
2023-01-06T06:02:20.059Z,8.50
2023-01-06T06:04:47.783Z,6.50
2023-01-06T06:07:15.104Z,6.40
2023-01-06T06:09:42.432Z,8.40
2023-01-06T06:12:11.142Z,6.93
2023-01-06T06:14:38.493Z,7.67
2023-01-06T06:17:05.955Z,6.23
2023-01-06T06:19:33.295Z,5.03
2023-01-06T06:22:00.648Z,5.67
2023-01-06T06:24:27.986Z,4.97
2023-01-06T06:26:55.337Z,8.20
2023-01-06T06:29:23.998Z,8.00
2023-01-06T06:31:51.324Z,6.40
2023-01-06T06:34:18.833Z,6.27
2023-01-06T06:36:46.144Z,5.63
2023-01-06T06:39:13.472Z,6.27
2023-01-06T06:41:40.781Z,6.90
2023-01-06T06:44:08.239Z,7.77
2023-01-06T06:46:36.895Z,9.87
2023-01-06T06:49:04.287Z,5.90
2023-01-06T06:51:31.698Z,5.77
2023-01-06T06:53:59.064Z,6.93
2023-01-06T06:56:26.438Z,7.63
2023-01-06T06:58:53.768Z,6.20
2023-01-06T07:01:21.648Z,6.53
2023-01-06T07:03:50.731Z,6.27
2023-01-06T07:06:19.491Z,7.50
2023-01-06T07:08:47.585Z,6.20
2023-01-06T07:11:15.284Z,4.20
2023-01-06T07:13:42.602Z,5.50
2023-01-06T07:16:10.320Z,6.97
2023-01-06T07:18:37.886Z,5.07
2023-01-06T07:21:06.914Z,5.43
2023-01-06T07:23:34.593Z,4.83
2023-01-06T07:26:02.557Z,5.30
2023-01-06T07:28:32.821Z,6.60
2023-01-06T07:31:00.243Z,3.63
2023-01-06T07:33:27.651Z,5.43
2023-01-06T07:35:55.388Z,4.00
2023-01-06T07:38:24.477Z,3.40
2023-01-06T07:40:52.056Z,4.20
2023-01-06T07:43:19.434Z,3.20
2023-01-06T07:45:47.411Z,3.03
2023-01-06T07:48:14.845Z,5.70
2023-01-06T07:50:42.211Z,5.10
2023-01-06T07:53:09.859Z,4.97
2023-01-06T07:55:38.751Z,3.30
2023-01-06T07:58:06.772Z,3.17
2023-01-06T08:00:34.574Z,3.70
2023-01-06T08:03:04.057Z,1.63
2023-01-06T08:05:31.466Z,3.73
2023-01-06T08:07:59.088Z,2.93
2023-01-06T08:10:26.423Z,2.20
2023-01-06T08:12:55.159Z,3.90
2023-01-06T08:15:22.513Z,4.90
2023-01-06T08:17:53.216Z,2.23
2023-01-06T08:20:20.660Z,1.70
2023-01-06T08:22:48.013Z,2.67
2023-01-06T08:25:15.436Z,2.37
2023-01-06T08:27:42.843Z,1.80
2023-01-06T08:30:12.210Z,2.93
2023-01-06T08:32:39.531Z,3.53
2023-01-06T08:35:07.256Z,1.37
2023-01-06T08:37:34.617Z,2.67
2023-01-06T08:40:01.947Z,2.73
2023-01-06T08:42:29.264Z,2.47
2023-01-06T08:44:57.352Z,1.77
2023-01-06T08:47:26.074Z,1.43
2023-01-06T08:49:53.402Z,2.83
2023-01-06T08:52:20.744Z,1.83
2023-01-06T08:54:48.097Z,2.40
2023-01-06T08:57:16.255Z,2.30
2023-01-06T08:59:43.685Z,2.07
2023-01-06T09:02:11.348Z,2.40
2023-01-06T09:04:40.266Z,1.53
2023-01-06T09:07:07.724Z,1.23
2023-01-06T09:09:35.151Z,0.83
2023-01-06T09:12:02.529Z,2.70
2023-01-06T09:14:30.299Z,3.57
2023-01-06T09:16:57.662Z,0.90
2023-01-06T09:19:24.993Z,2.57
2023-01-06T09:21:53.677Z,1.17
2023-01-06T09:24:21.034Z,2.20
2023-01-06T09:26:48.377Z,0.70
2023-01-06T09:29:15.735Z,2.10
2023-01-06T09:31:43.065Z,1.63
2023-01-06T09:34:10.391Z,2.07
2023-01-06T09:36:37.778Z,2.93
2023-01-06T09:39:06.438Z,2.03
2023-01-06T09:41:43.024Z,1.20
2023-01-06T09:44:12.641Z,0.60
2023-01-06T09:46:41.816Z,2.27
2023-01-06T09:49:13.035Z,0.77
2023-01-06T09:51:40.672Z,3.03
2023-01-06T09:54:15.775Z,1.90
2023-01-06T09:56:44.765Z,1.33
2023-01-06T09:59:15.744Z,1.00
2023-01-06T10:01:45.884Z,1.20
2023-01-06T10:04:16.619Z,1.63
2023-01-06T10:06:46.506Z,3.83
2023-01-06T10:09:22.844Z,0.90
2023-01-06T10:11:56.763Z,1.33
2023-01-06T10:14:28.462Z,2.63
2023-01-06T10:17:02.265Z,1.83
2023-01-06T10:19:31.520Z,1.17
2023-01-06T10:22:03.112Z,0.97
2023-01-06T10:24:39.650Z,1.40
2023-01-06T10:27:14.822Z,1.27
2023-01-06T10:29:43.274Z,1.43
2023-01-06T10:32:20.046Z,2.03
2023-01-06T10:34:48.562Z,0.83
2023-01-06T10:37:20.866Z,2.77
2023-01-06T10:39:51.546Z,2.00
2023-01-06T10:42:42.081Z,1.30
2023-01-06T10:45:11.828Z,1.73
2023-01-06T10:47:40.430Z,2.43
2023-01-06T10:50:08.446Z,1.43
2023-01-06T10:52:36.459Z,2.13
2023-01-06T10:55:06.164Z,1.67
2023-01-06T10:57:34.921Z,1.23
2023-01-06T11:00:09.476Z,1.90
2023-01-06T11:02:37.049Z,2.10
2023-01-06T11:05:04.630Z,4.37
2023-01-06T11:07:32.004Z,1.10
2023-01-06T11:10:00.565Z,1.13
2023-01-06T11:12:31.805Z,1.43
2023-01-06T11:15:00.119Z,2.07
2023-01-06T11:17:28.840Z,1.43
2023-01-06T11:20:06.867Z,2.27
2023-01-06T11:22:35.678Z,3.90
2023-01-06T11:25:04.277Z,2.80
2023-01-06T11:27:32.946Z,4.83
2023-01-06T11:30:02.332Z,2.43
2023-01-06T11:32:30.494Z,1.63
2023-01-06T11:34:58.619Z,3.43
2023-01-06T11:37:33.455Z,2.57
2023-01-06T11:40:10.194Z,2.70
2023-01-06T11:42:42.990Z,3.67
2023-01-06T11:45:29.392Z,3.13
2023-01-06T11:47:57.024Z,3.00
2023-01-06T11:50:24.376Z,2.00
2023-01-06T11:52:59.104Z,1.90
2023-01-06T11:55:27.408Z,1.80
2023-01-06T11:57:58.882Z,1.13
2023-01-06T12:00:32.836Z,0.87
2023-01-06T12:03:03.429Z,1.37
2023-01-06T12:05:35.147Z,0.83
2023-01-06T12:08:03.131Z,3.23
2023-01-06T12:10:32.391Z,1.10
2023-01-06T12:13:01.058Z,1.40
2023-01-06T12:15:30.354Z,1.30
2023-01-06T12:18:00.619Z,2.43
2023-01-06T12:20:29.921Z,0.57
2023-01-06T12:22:59.611Z,1.60
2023-01-06T12:25:28.424Z,2.43
2023-01-06T12:27:58.145Z,0.73
2023-01-06T12:30:29.997Z,1.57
2023-01-06T12:32:59.768Z,1.63
2023-01-06T12:35:29.569Z,0.90
2023-01-06T12:37:58.627Z,1.20
2023-01-06T12:40:31.663Z,1.73
2023-01-06T12:43:01.270Z,3.67
2023-01-06T12:45:33.299Z,1.10
2023-01-06T12:48:01.953Z,2.10
2023-01-06T12:50:32.765Z,4.23
2023-01-06T12:53:07.342Z,3.20
2023-01-06T12:55:43.467Z,2.40
2023-01-06T12:58:14.609Z,2.43
2023-01-06T13:00:47.875Z,3.33
2023-01-06T13:03:24.992Z,2.50
2023-01-06T13:05:59.368Z,4.67
2023-01-06T13:08:32.597Z,1.70
2023-01-06T13:11:05.483Z,1.60
2023-01-06T13:13:37.569Z,3.00
2023-01-06T13:16:12.006Z,3.03
2023-01-06T13:18:43.340Z,3.33
2023-01-06T13:21:12.083Z,2.00
2023-01-06T13:23:51.814Z,2.07
2023-01-06T13:26:27.342Z,2.90
2023-01-06T13:29:00.490Z,2.57
2023-01-06T13:31:44.275Z,2.97
2023-01-06T13:34:32.305Z,3.50
2023-01-06T13:37:12.620Z,3.40
2023-01-06T13:39:41.695Z,2.27
2023-01-06T13:42:09.235Z,1.73
2023-01-06T13:44:37.968Z,1.37
2023-01-06T13:47:08.711Z,3.87
2023-01-06T13:49:37.230Z,1.37
2023-01-06T13:52:05.116Z,2.03
2023-01-06T13:54:51.216Z,2.67
2023-01-06T13:57:39.546Z,3.43
2023-01-06T14:00:15.442Z,2.80
2023-01-06T14:03:03.665Z,1.40
2023-01-06T14:05:49.719Z,3.47
2023-01-06T14:08:18.668Z,3.20
2023-01-06T14:10:48.417Z,4.17
2023-01-06T14:13:21.127Z,2.97
2023-01-06T14:15:56.247Z,3.57
2023-01-06T14:18:35.853Z,3.50
2023-01-06T14:21:04.485Z,1.77
2023-01-06T14:23:32.035Z,3.73
2023-01-06T14:25:59.529Z,6.67
2023-01-06T14:28:28.560Z,4.37
2023-01-06T14:31:14.756Z,2.83
2023-01-06T14:33:45.214Z,1.40
2023-01-06T14:36:14.006Z,3.23
2023-01-06T14:38:45.434Z,2.40
2023-01-06T14:41:21.470Z,1.90
2023-01-06T14:43:52.509Z,1.70
2023-01-06T14:46:21.084Z,3.47
2023-01-06T14:48:52.721Z,2.77
2023-01-06T14:51:21.049Z,2.67
2023-01-06T14:53:50.567Z,1.93
2023-01-06T14:56:19.182Z,2.03
2023-01-06T14:58:46.557Z,2.67
2023-01-06T15:01:24.592Z,3.97
2023-01-06T15:03:57.437Z,4.70
2023-01-06T15:06:25.627Z,3.37
2023-01-06T15:08:52.978Z,2.87
2023-01-06T15:11:23.837Z,2.40
2023-01-06T15:13:51.238Z,3.53
2023-01-06T15:16:20.941Z,3.00
2023-01-06T15:18:48.767Z,3.40
2023-01-06T15:21:17.942Z,2.73
2023-01-06T15:23:47.424Z,2.20
2023-01-06T15:26:17.565Z,3.17
2023-01-06T15:28:55.924Z,1.60
2023-01-06T15:31:23.370Z,4.10
2023-01-06T15:33:51.200Z,1.20
2023-01-06T15:36:21.246Z,2.00
2023-01-06T15:38:49.854Z,2.30
2023-01-06T15:41:31.560Z,2.07
2023-01-06T15:43:59.839Z,2.80
2023-01-06T15:46:28.274Z,3.17
2023-01-06T15:48:55.681Z,4.43
2023-01-06T15:51:24.409Z,2.33
2023-01-06T15:53:55.689Z,3.30
2023-01-06T15:56:24.002Z,3.07
2023-01-06T15:58:52.868Z,2.70
2023-01-06T16:01:21.126Z,3.13
2023-01-06T16:03:50.364Z,3.13
2023-01-06T16:06:26.137Z,3.63
2023-01-06T16:08:54.840Z,3.20
2023-01-06T16:11:41.641Z,3.27
2023-01-06T16:14:24.858Z,2.57
2023-01-06T16:16:52.531Z,3.70
2023-01-06T16:19:21.214Z,2.60
2023-01-06T16:21:51.835Z,4.73
2023-01-06T16:24:22.184Z,4.20
2023-01-06T16:26:52.566Z,3.53
2023-01-06T16:29:28.845Z,5.87
2023-01-06T16:31:56.545Z,5.97
2023-01-06T16:34:26.552Z,6.30
2023-01-06T16:36:55.589Z,4.30
2023-01-06T16:39:24.493Z,4.73
2023-01-06T16:42:33.687Z,5.83
2023-01-06T16:45:02.110Z,4.90
2023-01-06T16:47:29.544Z,7.00
2023-01-06T16:49:57.614Z,5.10
2023-01-06T16:52:25.997Z,4.90
2023-01-06T16:54:56.281Z,3.93
2023-01-06T16:57:24.194Z,4.50
2023-01-06T16:59:51.698Z,6.80
2023-01-06T17:02:19.579Z,5.50
2023-01-06T17:04:47.515Z,7.53
2023-01-06T17:07:15.924Z,6.77
2023-01-06T17:09:43.810Z,7.77
2023-01-06T17:12:35.201Z,6.50
2023-01-06T17:15:02.719Z,6.13
2023-01-06T17:17:30.235Z,7.77
2023-01-06T17:19:57.645Z,6.57
2023-01-06T17:22:27.025Z,5.70
2023-01-06T17:24:54.748Z,7.03
2023-01-06T17:27:25.331Z,11.57
2023-01-06T17:29:52.981Z,8.43
2023-01-06T17:32:22.058Z,7.03
2023-01-06T17:34:49.527Z,7.47
2023-01-06T17:37:20.496Z,8.07
2023-01-06T17:39:48.035Z,6.50
2023-01-06T17:42:26.179Z,6.27
2023-01-06T17:44:55.078Z,4.93
2023-01-06T17:47:28.247Z,4.40
2023-01-06T17:49:56.739Z,5.37
2023-01-06T17:52:24.828Z,4.93
2023-01-06T17:55:11.313Z,4.67
2023-01-06T17:57:41.617Z,5.20
2023-01-06T18:00:23.361Z,4.50
2023-01-06T18:02:54.291Z,4.50
2023-01-06T18:05:40.484Z,4.70
2023-01-06T18:08:11.397Z,5.73
2023-01-06T18:10:39.591Z,6.33
2023-01-06T18:13:14.712Z,4.10
2023-01-06T18:15:42.072Z,4.70
2023-01-06T18:18:16.885Z,5.47
2023-01-06T18:20:46.617Z,5.13
2023-01-06T18:23:17.106Z,5.73
2023-01-06T18:25:44.512Z,5.90
2023-01-06T18:28:15.368Z,7.50
2023-01-06T18:30:42.698Z,7.20
2023-01-06T18:33:14.171Z,7.03
2023-01-06T18:35:41.605Z,9.10
2023-01-06T18:38:09.194Z,8.43
2023-01-06T18:40:38.068Z,7.77
2023-01-06T18:43:16.306Z,10.10
2023-01-06T18:45:45.050Z,11.20
2023-01-06T18:48:17.658Z,6.17
2023-01-06T18:50:45.678Z,7.30
2023-01-06T18:53:19.482Z,7.07
2023-01-06T18:55:47.468Z,5.80
2023-01-06T18:58:17.681Z,7.13
2023-01-06T19:00:48.462Z,7.30
2023-01-06T19:03:20.250Z,8.97
2023-01-06T19:05:47.749Z,6.33
2023-01-06T19:08:16.631Z,6.80
2023-01-06T19:10:45.028Z,6.80
2023-01-06T19:13:16.512Z,7.43
2023-01-06T19:15:43.841Z,9.10
2023-01-06T19:18:15.577Z,7.50
2023-01-06T19:20:43.058Z,7.00
2023-01-06T19:23:15.705Z,7.93
2023-01-06T19:25:48.325Z,5.63
2023-01-06T19:28:17.662Z,6.00
2023-01-06T19:30:45.397Z,5.93
2023-01-06T19:33:22.870Z,5.87
2023-01-06T19:35:50.735Z,7.40
2023-01-06T19:38:24.646Z,6.03
2023-01-06T19:40:52.344Z,6.30
2023-01-06T19:43:22.589Z,5.93
2023-01-06T19:45:50.140Z,6.07
2023-01-06T19:48:20.537Z,5.93
2023-01-06T19:50:49.384Z,5.53
2023-01-06T19:53:25.126Z,4.77
2023-01-06T19:55:52.470Z,4.47
2023-01-06T19:58:26.032Z,6.33
2023-01-06T20:00:54.389Z,5.50
2023-01-06T20:03:26.678Z,7.07
2023-01-06T20:05:55.403Z,5.50
2023-01-06T20:08:22.763Z,6.30
2023-01-06T20:10:50.153Z,5.73
2023-01-06T20:13:17.548Z,5.50
2023-01-06T20:15:44.922Z,7.30
2023-01-06T20:18:12.270Z,6.73
2023-01-06T20:20:39.696Z,4.60
2023-01-06T20:23:08.391Z,6.33
2023-01-06T20:25:35.693Z,5.50
2023-01-06T20:28:03.015Z,6.77
2023-01-06T20:30:30.319Z,4.83
2023-01-06T20:32:57.638Z,4.53
2023-01-06T20:35:25.240Z,4.20
2023-01-06T20:37:52.577Z,3.73
2023-01-06T20:40:21.260Z,3.30
2023-01-06T20:42:48.604Z,3.50
2023-01-06T20:45:16.023Z,3.47
2023-01-06T20:47:43.990Z,5.70
2023-01-06T20:50:13.788Z,4.33
2023-01-06T20:52:41.286Z,3.43
2023-01-06T20:55:09.088Z,3.63
2023-01-06T20:57:37.971Z,3.67
2023-01-06T21:00:06.594Z,3.70
2023-01-06T21:02:33.997Z,6.33
2023-01-06T21:05:01.524Z,4.57
2023-01-06T21:07:28.850Z,3.83
2023-01-06T21:09:56.781Z,3.73
2023-01-06T21:12:24.104Z,3.63
2023-01-06T21:14:52.855Z,3.97
2023-01-06T21:17:20.208Z,5.07
2023-01-06T21:19:47.996Z,4.70
2023-01-06T21:22:15.365Z,5.13
2023-01-06T21:24:42.717Z,3.73
2023-01-06T21:27:10.049Z,3.83
2023-01-06T21:29:37.489Z,4.47
2023-01-06T21:32:06.241Z,4.60
2023-01-06T21:34:33.631Z,5.33
2023-01-06T21:37:00.953Z,5.17
2023-01-06T21:39:28.284Z,3.73
2023-01-06T21:42:13.091Z,4.40
2023-01-06T21:44:40.404Z,5.40
2023-01-06T21:47:10.108Z,2.93
2023-01-06T21:49:37.739Z,2.73
2023-01-06T21:52:05.738Z,2.73
2023-01-06T21:54:33.070Z,3.23
2023-01-06T21:57:00.427Z,3.00
2023-01-06T21:59:27.741Z,4.07
2023-01-06T22:01:55.133Z,3.53
2023-01-06T22:04:23.895Z,4.57
2023-01-06T22:06:51.350Z,2.90
2023-01-06T22:09:19.243Z,3.17
2023-01-06T22:11:47.339Z,3.43
2023-01-06T22:14:15.126Z,3.47
2023-01-06T22:16:42.939Z,5.20
2023-01-06T22:19:12.084Z,4.10
2023-01-06T22:21:41.255Z,3.13
2023-01-06T22:24:10.080Z,3.30
2023-01-06T22:26:37.495Z,3.07
2023-01-06T22:29:04.951Z,3.83
2023-01-06T22:31:32.267Z,4.00
2023-01-06T22:33:59.645Z,2.13
2023-01-06T22:36:27.000Z,3.20
2023-01-06T22:38:55.746Z,3.40
2023-01-06T22:41:23.105Z,3.80
2023-01-06T22:43:50.710Z,3.90
2023-01-06T22:46:18.549Z,3.73
2023-01-06T22:48:45.988Z,3.93
2023-01-06T22:51:13.345Z,2.93
2023-01-06T22:53:40.714Z,5.03
2023-01-06T22:56:10.532Z,4.93
2023-01-06T22:58:38.710Z,3.53
2023-01-06T23:01:07.071Z,4.20
2023-01-06T23:03:34.960Z,3.27
2023-01-06T23:06:03.153Z,5.20
2023-01-06T23:08:31.342Z,4.27
2023-01-06T23:10:59.164Z,4.03
2023-01-06T23:13:28.041Z,6.00
2023-01-06T23:16:02.015Z,4.23
2023-01-06T23:18:30.387Z,4.13
2023-01-06T23:20:58.494Z,2.13
2023-01-06T23:23:25.909Z,2.50
2023-01-06T23:25:53.266Z,2.00
2023-01-06T23:28:20.784Z,2.60
2023-01-06T23:30:49.501Z,2.33
2023-01-06T23:33:16.827Z,2.90
2023-01-06T23:35:44.160Z,3.10
2023-01-06T23:38:11.461Z,2.40
2023-01-06T23:40:38.781Z,2.27
2023-01-06T23:43:06.096Z,1.77
2023-01-06T23:45:33.443Z,2.40
2023-01-06T23:48:02.065Z,2.30
2023-01-06T23:50:29.379Z,3.70
2023-01-06T23:52:56.706Z,2.20
2023-01-06T23:55:24.026Z,2.53
2023-01-06T23:57:51.351Z,2.27
